Pine Bluff, Arkansas
Current Conditions -  °F | °C
As of 5:53 PM on Monday 24 Nov 2014 (Local Time) from KPBF Reporting Station
Clear Clear  
Wind Chill: 50°   Ceiling: Unl
Heat Index: 50°   Visibility: 10mi
Dew Point: 33°   Wind: 5mph
Humidity: 52%   Direction: 220°SW
Pressure: 30.01"   Gusts: NA
Location:  34.22°N, 92°W
Report Text: KPBF 242353Z AUTO 22004KT 10SM CLR 10/01 A3001 RMK AO2 SLP161 T01000006 10150 20100 51022
Loading
Personal Weather Stations






























Interactive Weather Map New forecast layout! Learn more

10-Day Weather Forecast

Advertisements
Track Severe Weather on mobile